Time;durP1;ratioP1;P1;durP2;ratioP2;P2;SDS_P1;SDS_P2;PMS_P1;PMS_P2;Temp;Humidity;BMP_temperature;BMP_pressure;BME280_temperature;BME280_humidity;BME280_pressure;Samples;Min_cycle;Max_cycle;Signal;HPM_P1;HPM_P2
2024/03/27 00:00:31;;;;;;;1.75;0.20;;;9.40;99.90;;;;;;4962254;28;20122;-92
2024/03/27 00:02:57;;;;;;;0.90;0.30;;;9.40;99.90;;;;;;4971541;28;20105;-91
2024/03/27 00:05:23;;;;;;;0.70;0.28;;;9.50;99.90;;;;;;4970889;28;20494;-92
2024/03/27 00:07:49;;;;;;;1.33;0.30;;;9.50;99.90;;;;;;4968530;28;20034;-92
2024/03/27 00:10:16;;;;;;;1.05;0.25;;;9.50;99.90;;;;;;4951834;28;20035;-92
2024/03/27 00:12:42;;;;;;;1.15;0.30;;;9.60;99.90;;;;;;4958122;28;20498;-91
2024/03/27 00:15:08;;;;;;;0.90;0.30;;;9.70;99.90;;;;;;4978554;28;20041;-91
2024/03/27 00:17:34;;;;;;;1.00;0.30;;;9.70;99.90;;;;;;4953059;28;20039;-91
2024/03/27 00:20:00;;;;;;;1.35;0.22;;;9.70;99.90;;;;;;4954692;28;20459;-91
2024/03/27 00:22:25;;;;;;;1.23;0.20;;;9.70;99.90;;;;;;4968675;28;20050;-91
2024/03/27 00:24:51;;;;;;;1.85;0.20;;;9.70;99.90;;;;;;4952822;28;20058;-91
2024/03/27 00:27:18;;;;;;;0.88;0.20;;;9.70;99.90;;;;;;4970819;28;20023;-92
2024/03/27 00:29:43;;;;;;;0.70;0.30;;;9.70;99.90;;;;;;4970402;28;20023;-91
2024/03/27 00:32:09;;;;;;;1.50;0.22;;;9.80;99.90;;;;;;4969727;28;20050;-91
2024/03/27 00:34:35;;;;;;;1.20;0.30;;;9.80;99.90;;;;;;4968973;28;20026;-91
2024/03/27 00:37:01;;;;;;;1.33;0.20;;;9.80;99.90;;;;;;4965145;28;20479;-92
2024/03/27 00:39:27;;;;;;;2.33;0.32;;;9.80;99.90;;;;;;4962590;28;20141;-91
2024/03/27 00:41:53;;;;;;;1.63;0.20;;;9.80;99.90;;;;;;4954106;28;20506;-91
2024/03/27 00:44:19;;;;;;;0.95;0.30;;;9.70;99.90;;;;;;4968147;28;20029;-91
2024/03/27 00:46:44;;;;;;;0.70;0.20;;;9.90;99.90;;;;;;4971464;28;20027;-91
2024/03/27 00:49:12;;;;;;;1.30;0.30;;;9.90;99.90;;;;;;4970206;28;20030;-92
2024/03/27 00:51:38;;;;;;;0.65;0.28;;;9.90;99.90;;;;;;4966091;28;20035;-92
2024/03/27 00:54:06;;;;;;;0.93;0.30;;;9.90;99.90;;;;;;4970485;28;20118;-91
2024/03/27 00:56:32;;;;;;;0.85;0.30;;;9.80;99.90;;;;;;4959714;28;20042;-91
2024/03/27 00:58:58;;;;;;;0.70;0.20;;;9.80;99.90;;;;;;4970693;28;20332;-91
2024/03/27 01:01:23;;;;;;;1.60;0.30;;;9.80;99.90;;;;;;4969948;28;20027;-91
2024/03/27 01:03:49;;;;;;;1.10;0.30;;;9.80;99.90;;;;;;4952794;28;20125;-91
2024/03/27 01:06:15;;;;;;;1.20;0.40;;;9.80;99.90;;;;;;4958356;28;20031;-91
2024/03/27 01:08:41;;;;;;;1.17;0.30;;;9.80;99.90;;;;;;4952559;28;20033;-91
2024/03/27 01:11:08;;;;;;;0.90;0.30;;;9.80;99.90;;;;;;4951723;28;20023;-92
2024/03/27 01:13:33;;;;;;;0.80;0.30;;;9.80;99.90;;;;;;4956091;28;20031;-91
2024/03/27 01:15:59;;;;;;;0.90;0.30;;;9.80;99.90;;;;;;4952656;28;20034;-92
2024/03/27 01:18:25;;;;;;;1.38;0.40;;;9.70;99.90;;;;;;4955327;28;20042;-92
2024/03/27 01:20:50;;;;;;;1.58;0.30;;;9.80;99.90;;;;;;4964698;28;20117;-91
2024/03/27 01:23:16;;;;;;;2.20;0.50;;;9.80;99.90;;;;;;4968248;28;20038;-91
2024/03/27 01:25:42;;;;;;;0.93;0.30;;;9.80;99.90;;;;;;4968360;28;20019;-91
2024/03/27 01:28:10;;;;;;;1.08;0.30;;;9.80;99.90;;;;;;4969592;28;20121;-91
2024/03/27 01:30:36;;;;;;;1.48;0.40;;;9.80;99.90;;;;;;4960280;28;20074;-92
2024/03/27 01:33:02;;;;;;;1.35;0.38;;;9.80;99.90;;;;;;4967593;28;20476;-91
2024/03/27 01:35:28;;;;;;;0.90;0.30;;;9.80;99.90;;;;;;4947506;28;20121;-91
2024/03/27 01:37:53;;;;;;;0.75;0.30;;;9.70;99.90;;;;;;4960132;28;20125;-91
2024/03/27 01:40:19;;;;;;;0.95;0.30;;;9.70;99.90;;;;;;4969165;28;20043;-91
2024/03/27 01:42:45;;;;;;;1.30;0.30;;;9.60;99.90;;;;;;4950382;28;20345;-92
2024/03/27 01:45:13;;;;;;;1.05;0.40;;;9.60;99.90;;;;;;4948977;28;20455;-91
2024/03/27 01:47:42;;;;;;;1.05;0.30;;;9.50;99.90;;;;;;4966570;28;20131;-92
2024/03/27 01:50:11;;;;;;;0.77;0.30;;;9.60;99.90;;;;;;4954450;28;20391;-91
2024/03/27 01:52:38;;;;;;;1.45;0.40;;;9.60;99.90;;;;;;4967225;28;20121;-91
2024/03/27 01:55:04;;;;;;;1.23;0.40;;;9.50;99.90;;;;;;4966147;28;20074;-91
2024/03/27 01:57:32;;;;;;;1.98;0.40;;;9.50;99.90;;;;;;4968319;28;20030;-91
2024/03/27 01:59:58;;;;;;;1.00;0.40;;;9.50;99.90;;;;;;4970363;28;20038;-91
2024/03/27 02:02:27;;;;;;;0.73;0.30;;;9.50;99.90;;;;;;4970560;28;20031;-91
2024/03/27 02:04:53;;;;;;;0.70;0.30;;;9.50;99.90;;;;;;4971077;28;20058;-91
2024/03/27 02:07:19;;;;;;;1.10;0.30;;;9.40;99.90;;;;;;4963889;28;20058;-92
2024/03/27 02:09:45;;;;;;;0.95;0.30;;;9.40;99.90;;;;;;4956217;28;20035;-92
2024/03/27 02:12:11;;;;;;;1.75;0.30;;;9.30;99.90;;;;;;4955669;28;20023;-92
2024/03/27 02:14:37;;;;;;;0.80;0.30;;;9.30;99.90;;;;;;4968957;28;20041;-91
2024/03/27 02:17:02;;;;;;;0.63;0.30;;;9.40;99.90;;;;;;4967919;28;20026;-92
2024/03/27 02:19:28;;;;;;;0.80;0.30;;;9.30;99.90;;;;;;4968418;28;20050;-92
2024/03/27 02:21:55;;;;;;;1.77;0.38;;;9.30;99.90;;;;;;4957357;28;20077;-92
2024/03/27 02:24:29;;;;;;;0.70;0.30;;;9.30;99.90;;;;;;4969267;28;20086;-92
2024/03/27 02:26:55;;;;;;;0.57;0.20;;;9.30;99.90;;;;;;4960634;28;20021;-92
2024/03/27 02:29:21;;;;;;;1.58;0.20;;;9.30;99.90;;;;;;4969164;28;20030;-92
2024/03/27 02:31:47;;;;;;;1.52;0.30;;;9.30;99.90;;;;;;4958075;28;20085;-91
2024/03/27 02:34:12;;;;;;;1.42;0.30;;;9.30;99.90;;;;;;4955793;28;20038;-92
2024/03/27 02:36:38;;;;;;;1.00;0.32;;;9.30;99.90;;;;;;4956668;28;20476;-92
2024/03/27 02:39:07;;;;;;;0.60;0.30;;;9.30;99.90;;;;;;4967595;28;20043;-91
2024/03/27 02:41:34;;;;;;;0.73;0.30;;;9.20;99.90;;;;;;4981118;28;20525;-92
2024/03/27 02:44:00;;;;;;;0.95;0.40;;;9.30;99.90;;;;;;4949818;28;20113;-92
2024/03/27 02:46:26;;;;;;;1.35;0.40;;;9.30;99.90;;;;;;4955877;28;20380;-92
2024/03/27 02:48:52;;;;;;;1.08;0.30;;;9.30;99.90;;;;;;4958279;28;20037;-92
2024/03/27 02:51:18;;;;;;;0.93;0.30;;;9.30;99.90;;;;;;4950398;28;20041;-91
2024/03/27 02:53:43;;;;;;;0.85;0.30;;;9.30;99.90;;;;;;4945793;28;20110;-91
2024/03/27 02:56:09;;;;;;;1.10;0.40;;;9.20;99.90;;;;;;4967829;28;20506;-91
2024/03/27 02:58:35;;;;;;;1.45;0.40;;;9.20;99.90;;;;;;4954907;28;20034;-91
2024/03/27 03:01:00;;;;;;;1.42;0.30;;;9.20;99.90;;;;;;4951866;28;20454;-92
2024/03/27 03:03:26;;;;;;;1.20;0.40;;;9.10;99.90;;;;;;4970341;28;20085;-91
2024/03/27 03:05:52;;;;;;;1.65;0.40;;;9.20;99.90;;;;;;4967089;28;20031;-92
2024/03/27 03:08:17;;;;;;;1.08;0.40;;;9.20;99.90;;;;;;4967606;28;20442;-91
2024/03/27 03:10:43;;;;;;;1.42;0.40;;;9.10;99.90;;;;;;4971725;28;20043;-92
2024/03/27 03:13:09;;;;;;;1.30;0.40;;;9.10;99.90;;;;;;4965989;28;20027;-92
2024/03/27 03:15:34;;;;;;;0.98;0.35;;;9.10;99.90;;;;;;4966868;28;20073;-92
2024/03/27 03:18:00;;;;;;;2.00;0.38;;;9.20;99.90;;;;;;4965589;28;20046;-92
2024/03/27 03:20:26;;;;;;;0.70;0.30;;;9.20;99.90;;;;;;4946858;28;20178;-91
2024/03/27 03:22:53;;;;;;;0.80;0.30;;;9.20;99.90;;;;;;4968002;28;20110;-92
2024/03/27 03:25:19;;;;;;;1.02;0.30;;;9.20;99.90;;;;;;4961748;28;20062;-91
2024/03/27 03:27:45;;;;;;;0.70;0.30;;;9.20;99.90;;;;;;4968691;28;20030;-92
2024/03/27 03:30:11;;;;;;;2.03;0.40;;;9.20;99.90;;;;;;4958236;28;20050;-92
2024/03/27 03:32:37;;;;;;;1.00;0.35;;;9.20;99.90;;;;;;4959341;28;20105;-92
2024/03/27 03:35:03;;;;;;;0.90;0.30;;;9.20;99.90;;;;;;4966528;28;20027;-91
2024/03/27 03:37:29;;;;;;;1.13;0.30;;;9.30;99.90;;;;;;4964953;28;20031;-91
2024/03/27 03:39:55;;;;;;;0.90;0.40;;;9.30;99.90;;;;;;4964775;28;20484;-92
2024/03/27 03:42:21;;;;;;;0.85;0.30;;;9.30;99.90;;;;;;4969005;28;20027;-92
2024/03/27 03:44:47;;;;;;;1.38;0.40;;;9.30;99.90;;;;;;4957640;28;20041;-92
2024/03/27 03:47:12;;;;;;;1.10;0.32;;;9.30;99.90;;;;;;4964978;28;20035;-91
2024/03/27 03:49:38;;;;;;;0.80;0.30;;;9.30;99.90;;;;;;4968092;28;20037;-92
2024/03/27 03:52:04;;;;;;;1.08;0.40;;;9.30;99.90;;;;;;4951452;28;20105;-92
2024/03/27 03:54:29;;;;;;;1.67;0.35;;;9.30;99.90;;;;;;4957031;28;20479;-92
2024/03/27 03:56:55;;;;;;;1.20;0.30;;;9.30;99.90;;;;;;4965397;28;20027;-92
2024/03/27 03:59:21;;;;;;;1.00;0.30;;;9.20;99.90;;;;;;4966613;28;20482;-91
2024/03/27 04:01:47;;;;;;;1.05;0.30;;;9.30;99.90;;;;;;4956499;28;20033;-92
2024/03/27 04:04:12;;;;;;;0.85;0.30;;;9.30;99.90;;;;;;4952225;28;20042;-91
2024/03/27 04:06:38;;;;;;;0.93;0.30;;;9.30;99.90;;;;;;4956249;28;20022;-92
2024/03/27 04:09:04;;;;;;;0.90;0.40;;;9.20;99.90;;;;;;4967468;28;20379;-92
2024/03/27 04:11:29;;;;;;;1.27;0.40;;;9.20;99.90;;;;;;4966155;28;20023;-91
2024/03/27 04:13:56;;;;;;;1.20;0.40;;;9.30;99.90;;;;;;4958279;28;20538;-92
2024/03/27 04:16:22;;;;;;;0.85;0.30;;;9.20;99.90;;;;;;4966673;28;20023;-92
2024/03/27 04:18:47;;;;;;;1.20;0.30;;;9.20;99.90;;;;;;4970812;28;20093;-92
2024/03/27 04:21:13;;;;;;;3.22;0.40;;;9.20;99.90;;;;;;4971318;28;20030;-92
2024/03/27 04:23:39;;;;;;;0.90;0.30;;;9.20;99.90;;;;;;4957793;28;20058;-91
2024/03/27 04:26:04;;;;;;;1.00;0.32;;;9.10;99.90;;;;;;4969453;28;20433;-91
2024/03/27 04:28:30;;;;;;;0.90;0.38;;;9.10;99.90;;;;;;4964866;28;20042;-92
2024/03/27 04:30:56;;;;;;;0.73;0.30;;;9.10;99.90;;;;;;4959740;28;20030;-91
2024/03/27 04:33:22;;;;;;;1.13;0.40;;;9.00;99.90;;;;;;4960184;28;20035;-92
2024/03/27 04:35:48;;;;;;;0.82;0.30;;;9.10;99.90;;;;;;4957935;28;20031;-91
2024/03/27 04:38:14;;;;;;;2.25;0.30;;;9.00;99.90;;;;;;4970098;28;20046;-91
2024/03/27 04:40:40;;;;;;;1.08;0.30;;;9.00;99.90;;;;;;4988169;28;20065;-92
2024/03/27 04:43:06;;;;;;;1.63;0.30;;;9.00;99.90;;;;;;4971323;28;20384;-92
2024/03/27 04:45:31;;;;;;;1.35;0.40;;;9.00;99.90;;;;;;4970284;28;20034;-92
2024/03/27 04:47:57;;;;;;;1.13;0.40;;;9.10;99.90;;;;;;4968550;28;20033;-92
2024/03/27 04:50:23;;;;;;;1.25;0.40;;;9.00;99.90;;;;;;4968955;28;20158;-92
2024/03/27 04:52:49;;;;;;;1.65;0.40;;;9.10;99.90;;;;;;4968602;28;20050;-92
2024/03/27 04:55:15;;;;;;;1.17;0.40;;;9.00;99.90;;;;;;4948965;28;20046;-92
2024/03/27 04:57:41;;;;;;;1.35;0.40;;;9.10;99.90;;;;;;4968636;28;20031;-92
2024/03/27 05:00:09;;;;;;;1.23;0.50;;;9.10;99.90;;;;;;4961702;28;20030;-92
2024/03/27 05:02:34;;;;;;;1.13;0.40;;;9.10;99.90;;;;;;4971269;28;20360;-92
2024/03/27 05:05:00;;;;;;;1.25;0.40;;;9.10;99.90;;;;;;4968815;28;20045;-91
2024/03/27 05:07:26;;;;;;;0.98;0.30;;;9.00;99.90;;;;;;4969049;28;20483;-92
2024/03/27 05:09:51;;;;;;;1.35;0.32;;;9.00;99.90;;;;;;4965470;28;20027;-91
2024/03/27 05:12:17;;;;;;;1.40;0.40;;;9.00;99.90;;;;;;4969678;28;20077;-92
2024/03/27 05:14:43;;;;;;;1.02;0.32;;;9.00;99.90;;;;;;4969638;28;20031;-92
2024/03/27 05:17:08;;;;;;;1.85;0.40;;;9.00;99.90;;;;;;4969006;28;20110;-92
2024/03/27 05:19:35;;;;;;;3.53;0.50;;;8.90;99.90;;;;;;4959976;28;20035;-92
2024/03/27 05:22:01;;;;;;;1.65;0.45;;;9.00;99.90;;;;;;4964637;28;20030;-92
2024/03/27 05:24:27;;;;;;;0.90;0.40;;;9.00;99.90;;;;;;4969329;28;20074;-91
2024/03/27 05:26:53;;;;;;;1.98;0.40;;;8.90;99.90;;;;;;4953014;28;20130;-91
2024/03/27 05:29:19;;;;;;;1.55;0.60;;;8.90;99.90;;;;;;4968179;28;20035;-92
2024/03/27 05:31:49;;;;;;;1.30;0.40;;;9.00;99.90;;;;;;4966861;28;20023;-93
2024/03/27 05:34:18;;;;;;;0.77;0.30;;;9.00;99.90;;;;;;4966587;28;20046;-92
2024/03/27 05:36:44;;;;;;;1.45;0.40;;;9.00;99.90;;;;;;4969900;28;20035;-92
2024/03/27 05:39:10;;;;;;;2.25;0.50;;;9.00;99.90;;;;;;4964922;28;20062;-91
2024/03/27 05:41:37;;;;;;;2.80;0.50;;;9.00;99.90;;;;;;4957089;28;20042;-91
2024/03/27 05:44:04;;;;;;;1.77;0.50;;;9.00;99.90;;;;;;4952817;28;20030;-91
2024/03/27 05:46:31;;;;;;;2.15;0.60;;;9.00;99.90;;;;;;4954595;28;20494;-92
2024/03/27 05:48:57;;;;;;;1.70;0.50;;;9.10;99.90;;;;;;4962454;28;20039;-91
2024/03/27 05:51:28;;;;;;;2.97;0.73;;;9.10;99.90;;;;;;4962936;28;20030;-91
2024/03/27 05:53:54;;;;;;;0.98;0.40;;;9.20;99.90;;;;;;4975469;28;20399;-90
2024/03/27 05:56:19;;;;;;;2.08;0.60;;;9.20;99.90;;;;;;4965772;28;20299;-91
2024/03/27 05:58:45;;;;;;;1.98;0.50;;;9.30;99.90;;;;;;4969596;28;20045;-91
2024/03/27 06:01:11;;;;;;;1.70;0.40;;;9.40;99.90;;;;;;4967867;28;20027;-90
2024/03/27 06:03:36;;;;;;;4.50;0.45;;;9.50;99.90;;;;;;4957147;28;20082;-90
2024/03/27 06:06:02;;;;;;;2.13;0.40;;;9.50;99.90;;;;;;4967649;28;20050;-90
2024/03/27 06:08:28;;;;;;;1.30;0.32;;;9.50;99.90;;;;;;4946409;28;20045;-91
2024/03/27 06:10:54;;;;;;;0.65;0.28;;;9.60;99.90;;;;;;4962379;28;20463;-91
2024/03/27 06:13:20;;;;;;;1.33;0.30;;;9.60;99.90;;;;;;4953838;28;20031;-90
2024/03/27 06:15:46;;;;;;;0.70;0.30;;;9.60;99.90;;;;;;4956229;28;20425;-91
2024/03/27 06:18:11;;;;;;;2.25;0.30;;;9.60;99.90;;;;;;4951511;28;20049;-90
2024/03/27 06:20:37;;;;;;;1.80;0.40;;;9.60;99.90;;;;;;4958074;28;20360;-90
2024/03/27 06:23:04;;;;;;;1.23;0.40;;;9.70;99.90;;;;;;4961740;28;20093;-90
2024/03/27 06:25:30;;;;;;;2.00;0.40;;;9.70;99.90;;;;;;4969793;28;20031;-90
2024/03/27 06:27:55;;;;;;;1.33;0.40;;;9.80;99.90;;;;;;4965676;28;20050;-90
2024/03/27 06:30:21;;;;;;;0.75;0.30;;;9.80;99.90;;;;;;4950691;28;20027;-90
2024/03/27 06:32:47;;;;;;;1.63;0.40;;;9.90;99.90;;;;;;4954847;28;20498;-91
2024/03/27 06:35:12;;;;;;;0.82;0.30;;;9.90;99.90;;;;;;4970131;28;20107;-89
2024/03/27 06:37:38;;;;;;;1.33;0.30;;;10.00;99.90;;;;;;4955289;28;20472;-90
2024/03/27 06:40:04;;;;;;;1.00;0.40;;;10.10;99.90;;;;;;4957666;28;20062;-90
2024/03/27 06:42:30;;;;;;;0.70;0.30;;;10.10;99.90;;;;;;4960068;28;20034;-90
2024/03/27 06:44:56;;;;;;;0.95;0.43;;;10.10;99.90;;;;;;4966383;28;20037;-90
2024/03/27 06:47:26;;;;;;;0.98;0.30;;;10.10;99.90;;;;;;4967554;28;20614;-89
2024/03/27 06:49:55;;;;;;;1.48;0.40;;;10.00;99.90;;;;;;4967810;28;20037;-90
2024/03/27 06:52:21;;;;;;;0.50;0.20;;;10.10;99.90;;;;;;4954377;28;20130;-91
2024/03/27 06:54:51;;;;;;;1.23;0.43;;;10.10;99.90;;;;;;4948443;28;20043;-90
2024/03/27 06:57:17;;;;;;;0.93;0.30;;;10.10;99.90;;;;;;4954542;28;20039;-90
2024/03/27 06:59:43;;;;;;;0.40;0.20;;;10.10;99.90;;;;;;4942950;28;20126;-89
2024/03/27 07:02:09;;;;;;;1.05;0.30;;;10.10;99.90;;;;;;4954230;28;20546;-90
2024/03/27 07:04:35;;;;;;;0.60;0.20;;;10.10;99.90;;;;;;4961908;28;20157;-89
2024/03/27 07:07:02;;;;;;;0.63;0.30;;;10.10;99.90;;;;;;4951203;28;20029;-91
2024/03/27 07:09:32;;;;;;;0.57;0.20;;;10.10;99.90;;;;;;4946285;28;20049;-90
2024/03/27 07:11:58;;;;;;;0.82;0.30;;;10.10;99.90;;;;;;4965897;28;20555;-90
2024/03/27 07:14:24;;;;;;;0.80;0.30;;;10.20;99.90;;;;;;4981914;28;20054;-90
2024/03/27 07:16:49;;;;;;;0.90;0.30;;;10.20;99.90;;;;;;4951924;28;20117;-91
2024/03/27 07:19:15;;;;;;;0.70;0.38;;;10.20;99.90;;;;;;4979624;28;20042;-90
2024/03/27 07:21:42;;;;;;;1.05;0.50;;;10.20;99.90;;;;;;4947526;28;20067;-90
2024/03/27 07:24:08;;;;;;;1.17;0.50;;;10.20;99.90;;;;;;4964535;28;20030;-90
2024/03/27 07:26:40;;;;;;;1.75;0.40;;;10.20;99.90;;;;;;4964752;28;20019;-91
2024/03/27 07:29:06;;;;;;;0.93;0.40;;;10.30;99.90;;;;;;4965589;28;20426;-90
2024/03/27 07:31:32;;;;;;;1.30;0.50;;;10.30;99.90;;;;;;4963234;28;20038;-90
2024/03/27 07:33:58;;;;;;;0.85;0.40;;;10.30;99.90;;;;;;4960566;28;20042;-90
2024/03/27 07:36:25;;;;;;;0.90;0.40;;;10.20;99.90;;;;;;4962186;28;20071;-90
2024/03/27 07:38:51;;;;;;;0.68;0.30;;;10.20;99.90;;;;;;4951794;28;20050;-90
2024/03/27 07:41:17;;;;;;;1.55;0.50;;;10.30;99.90;;;;;;4953254;28;20055;-89
2024/03/27 07:43:42;;;;;;;1.05;0.40;;;10.30;99.90;;;;;;4963632;28;20058;-90
2024/03/27 07:46:11;;;;;;;1.10;0.40;;;10.30;99.90;;;;;;4944393;28;20072;-90
2024/03/27 07:48:37;;;;;;;0.93;0.32;;;10.40;99.90;;;;;;4948642;28;20042;-90
2024/03/27 07:51:02;;;;;;;0.95;0.30;;;10.40;99.90;;;;;;4936073;29;20046;-89
2024/03/27 07:53:28;;;;;;;0.98;0.40;;;10.40;99.90;;;;;;4946753;29;20032;-89
2024/03/27 07:55:58;;;;;;;0.80;0.40;;;10.40;99.90;;;;;;4934951;29;20042;-89
2024/03/27 07:58:24;;;;;;;0.88;0.40;;;10.30;99.90;;;;;;4936915;29;20660;-88
2024/03/27 08:00:51;;;;;;;1.20;0.60;;;10.30;99.90;;;;;;4934558;29;20095;-89
2024/03/27 08:03:17;;;;;;;1.55;0.70;;;10.20;99.90;;;;;;4932069;29;20035;-89
2024/03/27 08:05:46;;;;;;;1.30;0.60;;;10.20;99.90;;;;;;4943793;29;20095;-89
2024/03/27 08:08:11;;;;;;;2.42;0.60;;;10.10;99.90;;;;;;4945267;28;20042;-90
2024/03/27 08:10:38;;;;;;;1.60;0.50;;;10.10;99.90;;;;;;4935702;29;20031;-89
2024/03/27 08:13:04;;;;;;;3.08;1.48;;;10.00;99.90;;;;;;4935323;29;20110;-88
2024/03/27 08:15:30;;;;;;;3.90;2.03;;;10.00;99.90;;;;;;4947690;29;20542;-88
2024/03/27 08:17:56;;;;;;;3.92;2.65;;;9.90;99.90;;;;;;4934170;29;20082;-88
2024/03/27 08:20:22;;;;;;;3.90;3.03;;;9.80;99.90;;;;;;4935161;29;20503;-87
2024/03/27 08:22:49;;;;;;;8.50;5.72;;;9.80;99.90;;;;;;4946001;29;20031;-89
2024/03/27 08:25:15;;;;;;;6.95;5.32;;;9.80;99.90;;;;;;4935186;29;20057;-88
2024/03/27 08:27:41;;;;;;;9.18;7.57;;;9.70;99.90;;;;;;4929393;29;20039;-88
2024/03/27 08:30:07;;;;;;;11.68;9.63;;;9.70;99.90;;;;;;4930732;29;20392;-88
2024/03/27 08:32:33;;;;;;;12.73;9.77;;;9.60;99.90;;;;;;4944877;29;20035;-89
2024/03/27 08:34:59;;;;;;;9.88;7.93;;;9.50;99.90;;;;;;4950853;29;20035;-89
2024/03/27 08:37:24;;;;;;;10.15;7.72;;;9.60;99.90;;;;;;4948093;29;20074;-88
2024/03/27 08:39:52;;;;;;;10.52;8.38;;;9.70;99.90;;;;;;4932823;29;20066;-88
2024/03/27 08:42:20;;;;;;;15.23;11.30;;;9.60;99.90;;;;;;4933960;29;20097;-88
2024/03/27 08:44:46;;;;;;;14.70;11.95;;;9.30;99.90;;;;;;4928450;29;20028;-88
2024/03/27 08:47:12;;;;;;;14.02;10.77;;;9.20;99.90;;;;;;4934652;28;20045;-89
2024/03/27 08:49:37;;;;;;;14.65;12.05;;;9.20;99.90;;;;;;4950496;29;20031;-88
2024/03/27 08:52:03;;;;;;;17.52;11.48;;;9.20;99.90;;;;;;4945115;29;20488;-89
2024/03/27 08:54:28;;;;;;;10.98;9.27;;;9.20;99.90;;;;;;4930303;29;20023;-89
2024/03/27 08:56:54;;;;;;;10.65;8.40;;;9.40;99.90;;;;;;4944373;29;20027;-88
2024/03/27 08:59:20;;;;;;;13.68;10.55;;;9.50;99.90;;;;;;4955712;28;20503;-89
2024/03/27 09:01:45;;;;;;;11.35;9.48;;;9.30;99.90;;;;;;4929525;29;20031;-88
2024/03/27 09:04:11;;;;;;;11.43;9.00;;;9.40;99.90;;;;;;4934582;29;20038;-88
2024/03/27 09:06:37;;;;;;;10.65;8.38;;;9.40;99.90;;;;;;4934616;29;20027;-89
2024/03/27 09:09:03;;;;;;;10.02;8.23;;;9.30;99.90;;;;;;4949025;28;20055;-88
2024/03/27 09:11:29;;;;;;;8.20;6.68;;;9.40;99.90;;;;;;4946652;29;20089;-88
2024/03/27 09:13:55;;;;;;;7.78;6.57;;;9.50;99.90;;;;;;4944371;29;20027;-87
2024/03/27 09:16:20;;;;;;;6.10;5.47;;;9.70;99.90;;;;;;4929611;29;20031;-87
2024/03/27 09:18:46;;;;;;;5.30;4.63;;;9.80;99.90;;;;;;4945183;29;20051;-88
2024/03/27 09:21:11;;;;;;;4.35;3.85;;;10.00;99.90;;;;;;4939102;29;20046;-88
2024/03/27 09:23:40;;;;;;;4.53;2.83;;;10.20;99.90;;;;;;4943086;29;20034;-87
2024/03/27 09:26:06;;;;;;;4.18;3.38;;;10.40;99.90;;;;;;4945983;29;20464;-87
2024/03/27 09:28:31;;;;;;;3.95;3.17;;;10.20;99.90;;;;;;4943616;29;20038;-88
2024/03/27 09:31:02;;;;;;;5.20;2.67;;;10.30;99.90;;;;;;4962143;28;20189;-87
2024/03/27 09:33:28;;;;;;;4.57;3.38;;;10.30;99.90;;;;;;4941847;29;20400;-87
2024/03/27 09:35:54;;;;;;;4.60;3.58;;;10.20;99.90;;;;;;4945805;29;20034;-88
2024/03/27 09:38:19;;;;;;;3.47;2.78;;;10.20;99.90;;;;;;4947471;29;20531;-87
2024/03/27 09:40:53;;;;;;;4.38;3.47;;;10.20;99.90;;;;;;4933786;29;20055;-88
2024/03/27 09:43:21;;;;;;;4.97;3.38;;;10.20;99.90;;;;;;4929865;29;20027;-87
2024/03/27 09:45:47;;;;;;;5.32;4.00;;;10.10;99.90;;;;;;4963489;28;20083;-87
2024/03/27 09:48:14;;;;;;;4.30;3.50;;;10.00;99.90;;;;;;4929824;29;20127;-87
2024/03/27 09:50:40;;;;;;;2.92;1.83;;;10.10;99.90;;;;;;4929023;29;20027;-88
2024/03/27 09:53:07;;;;;;;3.17;2.00;;;10.30;99.90;;;;;;4947087;29;20066;-87
2024/03/27 09:55:34;;;;;;;6.68;3.75;;;10.20;99.90;;;;;;4948983;29;20031;-87
2024/03/27 09:58:26;;;;;;;3.38;2.60;;;10.00;99.90;;;;;;4925335;29;20032;-87
2024/03/27 10:00:52;;;;;;;5.78;2.88;;;10.20;99.90;;;;;;4946785;29;20059;-88
2024/03/27 10:03:21;;;;;;;4.78;2.42;;;10.20;99.90;;;;;;4944139;29;20032;-87
2024/03/27 10:05:48;;;;;;;4.60;3.93;;;10.10;99.90;;;;;;4942216;29;20027;-87
2024/03/27 10:08:14;;;;;;;5.05;2.80;;;9.90;99.90;;;;;;4943589;29;20287;-88
2024/03/27 10:10:40;;;;;;;3.80;2.33;;;10.00;99.90;;;;;;4962018;28;20031;-89
2024/03/27 10:13:07;;;;;;;4.63;2.70;;;10.10;99.90;;;;;;4943990;29;20027;-89
2024/03/27 10:15:34;;;;;;;3.05;1.67;;;9.90;99.90;;;;;;4948802;29;20146;-88
2024/03/27 10:18:01;;;;;;;5.93;2.28;;;9.90;99.90;;;;;;4944448;29;20122;-88
2024/03/27 10:20:27;;;;;;;2.80;2.00;;;9.90;99.90;;;;;;4937187;29;20055;-89
2024/03/27 10:22:55;;;;;;;4.40;2.58;;;9.80;99.90;;;;;;4946353;29;20975;-88
2024/03/27 10:25:22;;;;;;;3.85;1.92;;;9.70;99.90;;;;;;4929813;29;20399;-89
2024/03/27 10:27:49;;;;;;;3.13;2.03;;;9.80;99.90;;;;;;4928544;29;20324;-88
2024/03/27 10:30:15;;;;;;;2.15;0.93;;;9.80;99.90;;;;;;4941100;29;20098;-88
2024/03/27 10:32:40;;;;;;;3.33;1.13;;;9.90;99.90;;;;;;4931770;29;20023;-88
2024/03/27 10:35:08;;;;;;;2.47;1.60;;;9.90;99.90;;;;;;4944341;29;20389;-88
2024/03/27 10:37:34;;;;;;;3.10;1.58;;;9.70;99.90;;;;;;4943562;29;20062;-88
2024/03/27 10:40:02;;;;;;;2.35;0.95;;;9.70;99.90;;;;;;4943066;29;20118;-88
2024/03/27 10:42:28;;;;;;;2.15;1.00;;;9.80;99.90;;;;;;4928614;29;20043;-89
2024/03/27 10:45:00;;;;;;;3.00;1.70;;;9.90;99.90;;;;;;4946801;29;20035;-88
2024/03/27 10:47:34;;;;;;;4.32;2.03;;;9.90;99.90;;;;;;4944425;29;20035;-88
2024/03/27 10:50:04;;;;;;;3.45;1.73;;;9.90;99.90;;;;;;4943426;29;20537;-89
2024/03/27 10:52:31;;;;;;;2.20;1.00;;;9.90;99.90;;;;;;4928218;29;20483;-88
2024/03/27 10:54:57;;;;;;;3.40;1.05;;;10.00;99.90;;;;;;4962951;28;20099;-88
2024/03/27 10:57:23;;;;;;;3.28;1.38;;;10.00;99.90;;;;;;4946043;29;20034;-88
2024/03/27 10:59:51;;;;;;;2.50;1.08;;;10.10;99.90;;;;;;4942591;29;20062;-89
2024/03/27 11:02:19;;;;;;;3.35;1.52;;;10.00;99.90;;;;;;4931510;29;20135;-87
2024/03/27 11:05:01;;;;;;;2.40;1.20;;;10.10;99.90;;;;;;4943703;29;20027;-88
2024/03/27 11:07:32;;;;;;;2.05;0.90;;;10.20;99.90;;;;;;4941617;29;20031;-88
2024/03/27 11:09:58;;;;;;;3.38;1.65;;;10.40;99.90;;;;;;4948600;28;20042;-88
2024/03/27 11:12:24;;;;;;;2.13;1.27;;;10.20;99.90;;;;;;4944291;29;20031;-88
2024/03/27 11:14:52;;;;;;;2.95;1.60;;;10.40;99.90;;;;;;4931196;29;20399;-89
2024/03/27 11:17:25;;;;;;;3.78;1.80;;;10.40;99.90;;;;;;4943789;29;20060;-88
2024/03/27 11:19:54;;;;;;;4.80;2.33;;;10.20;99.90;;;;;;4947987;29;20479;-87
2024/03/27 11:22:23;;;;;;;3.25;1.95;;;10.20;99.90;;;;;;4926588;29;20043;-87
2024/03/27 11:24:50;;;;;;;3.17;1.60;;;10.40;99.90;;;;;;4941749;29;20043;-87
2024/03/27 11:27:29;;;;;;;3.33;2.25;;;10.40;99.90;;;;;;4946148;29;20480;-87
2024/03/27 11:29:59;;;;;;;3.53;2.40;;;10.10;99.90;;;;;;4923285;29;21991;-87
2024/03/27 11:32:31;;;;;;;;;;;10.00;99.90;;;;;;4948753;28;20028;-88
2024/03/27 11:34:57;;;;;;;4.88;2.97;;;9.90;99.90;;;;;;4943760;29;19910;-87
2024/03/27 11:37:23;;;;;;;5.15;2.85;;;10.10;99.90;;;;;;4943752;29;20034;-88
2024/03/27 11:39:49;;;;;;;3.72;2.15;;;10.00;99.90;;;;;;4941051;29;20039;-87
2024/03/27 11:42:14;;;;;;;2.72;1.55;;;10.00;99.90;;;;;;4944190;28;20163;-89
2024/03/27 11:44:40;;;;;;;2.33;1.30;;;10.10;99.90;;;;;;4928784;29;20031;-87
2024/03/27 11:47:06;;;;;;;3.30;1.70;;;10.10;99.90;;;;;;4930785;29;20065;-87
2024/03/27 11:49:32;;;;;;;3.50;1.40;;;10.00;99.90;;;;;;4942143;29;20071;-87
2024/03/27 11:51:58;;;;;;;4.07;2.38;;;9.90;99.90;;;;;;4941264;29;20499;-87
2024/03/27 11:54:27;;;;;;;2.63;1.35;;;9.80;99.90;;;;;;4947372;29;20143;-86
2024/03/27 11:56:52;;;;;;;3.97;0.98;;;9.80;99.90;;;;;;4937498;29;20023;-86
2024/03/27 11:59:18;;;;;;;2.65;1.10;;;10.00;99.90;;;;;;4960559;28;20042;-87
2024/03/27 12:01:44;;;;;;;2.50;0.80;;;10.00;99.90;;;;;;4947009;28;20085;-87
2024/03/27 12:04:10;;;;;;;2.88;0.70;;;10.00;99.90;;;;;;4943750;29;20031;-87
2024/03/27 12:06:36;;;;;;;2.33;0.90;;;9.90;99.90;;;;;;4960703;28;20063;-87
2024/03/27 12:09:03;;;;;;;1.65;0.65;;;9.90;99.90;;;;;;4946949;29;20038;-87
2024/03/27 12:11:29;;;;;;;2.17;0.85;;;10.00;99.90;;;;;;4946136;28;20031;-88
2024/03/27 12:13:56;;;;;;;2.08;0.70;;;10.10;99.90;;;;;;4931235;29;20039;-87
2024/03/27 12:16:22;;;;;;;1.85;0.70;;;10.10;99.90;;;;;;4928134;29;20046;-86
2024/03/27 12:18:47;;;;;;;2.00;0.77;;;10.20;99.90;;;;;;4931211;29;20039;-87
2024/03/27 12:21:15;;;;;;;2.67;0.80;;;10.30;99.90;;;;;;4942158;29;20406;-88
2024/03/27 12:23:43;;;;;;;2.40;1.08;;;10.40;99.90;;;;;;4947200;29;20043;-88
2024/03/27 12:26:16;;;;;;;2.20;0.70;;;10.30;99.90;;;;;;4946491;29;22415;-87
2024/03/27 12:28:51;;;;;;;1.70;0.73;;;10.10;99.90;;;;;;4946761;29;20046;-88
2024/03/27 12:31:28;;;;;;;1.58;0.55;;;10.00;99.90;;;;;;4945797;29;20251;-87
2024/03/27 12:33:54;;;;;;;2.55;0.88;;;10.00;99.90;;;;;;4928258;29;20047;-88
2024/03/27 12:36:20;;;;;;;1.80;0.70;;;10.10;99.90;;;;;;4945068;29;20043;-88
2024/03/27 12:38:49;;;;;;;1.70;0.60;;;10.30;99.90;;;;;;4948442;29;20040;-89
2024/03/27 12:41:15;;;;;;;1.33;0.60;;;10.30;99.90;;;;;;4946625;29;20500;-88
2024/03/27 12:43:40;;;;;;;1.45;0.60;;;10.30;99.90;;;;;;4950611;29;20108;-87
2024/03/27 12:46:06;;;;;;;2.33;0.80;;;10.40;99.90;;;;;;4950849;29;20053;-87
2024/03/27 12:48:33;;;;;;;3.15;0.95;;;10.50;99.90;;;;;;4938977;29;20118;-87